createdAt,value
2018-03-20T00:00:56.882Z,95052
2018-03-20T00:03:31.467Z,95062
2018-03-20T00:06:07.747Z,95056
2018-03-20T00:08:37.778Z,95051
2018-03-20T00:11:07.251Z,95048
2018-03-20T00:13:36.639Z,95058
2018-03-20T00:16:06.114Z,95043
2018-03-20T00:18:35.339Z,94905
2018-03-20T00:21:04.876Z,95060
2018-03-20T00:23:36.150Z,95049
2018-03-20T00:26:05.752Z,95072
2018-03-20T00:28:35.241Z,95071
2018-03-20T00:31:04.650Z,95065
2018-03-20T00:33:34.335Z,95059
2018-03-20T00:36:03.618Z,95063
2018-03-20T00:38:32.943Z,95063
2018-03-20T00:41:02.058Z,95057
2018-03-20T00:43:31.181Z,95065
2018-03-20T00:46:00.462Z,95055
2018-03-20T00:48:29.562Z,95063
2018-03-20T00:50:58.655Z,95065
2018-03-20T00:53:28.549Z,95053
2018-03-20T00:55:57.693Z,95069
2018-03-20T00:58:26.812Z,95072
2018-03-20T01:00:55.930Z,95072
2018-03-20T01:03:25.811Z,95067
2018-03-20T01:05:54.955Z,95064
2018-03-20T01:08:24.848Z,95063
2018-03-20T01:10:54.767Z,95076
2018-03-20T01:13:23.905Z,95071
2018-03-20T01:15:54.016Z,95065
2018-03-20T01:18:23.115Z,95066
2018-03-20T01:20:52.222Z,95071
2018-03-20T01:23:22.191Z,94775
2018-03-20T01:25:52.113Z,95078
2018-03-20T01:28:21.247Z,95081
2018-03-20T01:30:50.336Z,95070
2018-03-20T01:33:19.416Z,95073
2018-03-20T01:35:48.522Z,95074
2018-03-20T01:38:17.673Z,95075
2018-03-20T01:40:47.510Z,95073
2018-03-20T01:43:20.196Z,95078
2018-03-20T01:45:49.280Z,95077
2018-03-20T01:48:18.440Z,95066
2018-03-20T01:50:47.568Z,95064
2018-03-20T01:53:19.626Z,95061
2018-03-20T01:55:48.742Z,95062
2018-03-20T01:58:17.858Z,94911
2018-03-20T02:00:46.966Z,95063
2018-03-20T02:03:16.992Z,95053
2018-03-20T02:05:46.062Z,95054
2018-03-20T02:08:15.178Z,95043
2018-03-20T02:10:45.044Z,95048
2018-03-20T02:13:14.192Z,95049
2018-03-20T02:15:43.326Z,95052
2018-03-20T02:18:12.471Z,95046
2018-03-20T02:20:41.560Z,95037
2018-03-20T02:23:10.657Z,95048
2018-03-20T02:25:39.776Z,95051
2018-03-20T02:28:08.918Z,95047
2018-03-20T02:30:38.028Z,95055
2018-03-20T02:33:07.154Z,95070
2018-03-20T02:35:37.352Z,95074
2018-03-20T02:38:07.423Z,95068
2018-03-20T02:40:36.521Z,95062
2018-03-20T02:43:08.735Z,95067
2018-03-20T02:45:37.779Z,95065
2018-03-20T02:48:06.856Z,95064
2018-03-20T02:50:35.912Z,95076
2018-03-20T02:53:05.929Z,95072
2018-03-20T02:55:35.009Z,95067
2018-03-20T02:58:06.195Z,95076
2018-03-20T03:00:35.256Z,95080
2018-03-20T03:03:04.349Z,94296
2018-03-20T03:05:33.487Z,95074
2018-03-20T03:08:02.639Z,95071
2018-03-20T03:10:31.741Z,95066
2018-03-20T03:13:00.777Z,95071
2018-03-20T03:15:29.864Z,95065
2018-03-20T03:17:59.682Z,95065
2018-03-20T03:20:28.764Z,95071
2018-03-20T03:22:57.819Z,95077
2018-03-20T03:25:27.815Z,95086
2018-03-20T03:27:56.882Z,95084
2018-03-20T03:30:26.024Z,95097
2018-03-20T03:32:55.096Z,95094
2018-03-20T03:35:25.082Z,95102
2018-03-20T03:37:54.173Z,95102
2018-03-20T03:40:23.204Z,95091
2018-03-20T03:42:53.373Z,95102
2018-03-20T03:45:22.398Z,95095
2018-03-20T03:47:51.534Z,95110
2018-03-20T03:50:20.693Z,95105
2018-03-20T03:52:49.748Z,95106
2018-03-20T03:55:20.677Z,95104
2018-03-20T03:57:49.796Z,95108
2018-03-20T04:00:18.843Z,95112
2018-03-20T04:02:47.926Z,95115
2018-03-20T04:05:16.988Z,95117
2018-03-20T04:07:46.108Z,95119
2018-03-20T04:10:15.172Z,95120
2018-03-20T04:12:45.352Z,95105
2018-03-20T04:15:14.434Z,95116
2018-03-20T04:17:43.547Z,95118
2018-03-20T04:20:12.620Z,95115
2018-03-20T04:22:41.678Z,95122
2018-03-20T04:25:10.927Z,95120
2018-03-20T04:27:39.971Z,95126
2018-03-20T04:30:09.017Z,95131
2018-03-20T04:32:38.172Z,95141
2018-03-20T04:35:07.319Z,95143
2018-03-20T04:37:36.377Z,95138
2018-03-20T04:40:05.467Z,95131
2018-03-20T04:42:34.539Z,95131
2018-03-20T04:45:03.656Z,95136
2018-03-20T04:47:32.715Z,95178
2018-03-20T04:50:01.797Z,95138
2018-03-20T04:52:30.890Z,95137
2018-03-20T04:55:00.760Z,95143
2018-03-20T04:57:29.856Z,95147
2018-03-20T04:59:58.938Z,95144
2018-03-20T05:02:28.020Z,95142
2018-03-20T05:04:57.063Z,95150
2018-03-20T05:07:26.147Z,95146
2018-03-20T05:09:57.191Z,95160
2018-03-20T05:12:26.312Z,95158
2018-03-20T05:14:55.399Z,95163
2018-03-20T05:17:24.430Z,95161
2018-03-20T05:19:57.454Z,95167
2018-03-20T05:22:31.862Z,95168
2018-03-20T05:25:00.973Z,95174
2018-03-20T05:27:30.023Z,95170
2018-03-20T05:29:59.099Z,95175
2018-03-20T05:32:28.164Z,95184
2018-03-20T05:34:57.263Z,95202
2018-03-20T05:37:26.313Z,94388
2018-03-20T05:39:55.392Z,95192
2018-03-20T05:42:24.429Z,95203
2018-03-20T05:44:53.501Z,95213
2018-03-20T05:47:28.029Z,95220
2018-03-20T05:50:02.798Z,95223
2018-03-20T05:52:32.632Z,95234
2018-03-20T05:55:01.697Z,95227
2018-03-20T05:57:31.550Z,95218
2018-03-20T06:00:00.623Z,95232
2018-03-20T06:02:29.658Z,95240
2018-03-20T06:04:59.259Z,95239
2018-03-20T06:07:29.346Z,95244
2018-03-20T06:09:58.479Z,95247
2018-03-20T06:12:27.519Z,95248
2018-03-20T06:14:57.854Z,95241
2018-03-20T06:17:28.084Z,95247
2018-03-20T06:19:57.204Z,95257
2018-03-20T06:22:26.302Z,95256
2018-03-20T06:24:55.355Z,95263
2018-03-20T06:27:24.455Z,95263
2018-03-20T06:29:57.159Z,95271
2018-03-20T06:32:26.266Z,95267
2018-03-20T06:34:55.355Z,95267
2018-03-20T06:37:24.398Z,95284
2018-03-20T06:39:53.462Z,95277
2018-03-20T06:42:26.884Z,95267
2018-03-20T06:44:55.944Z,95268
2018-03-20T06:47:24.992Z,95274
2018-03-20T06:49:54.169Z,95283
2018-03-20T06:52:23.218Z,95283
2018-03-20T06:54:52.283Z,95276
2018-03-20T06:57:21.397Z,95276
2018-03-20T06:59:51.270Z,95270
2018-03-20T07:02:20.297Z,95279
2018-03-20T07:04:49.369Z,95266
2018-03-20T07:07:18.417Z,95267
2018-03-20T07:09:47.525Z,95271
2018-03-20T07:12:17.736Z,95280
2018-03-20T07:14:46.815Z,95272
2018-03-20T07:17:17.748Z,95314
2018-03-20T07:19:46.827Z,95269
2018-03-20T07:22:15.871Z,95266
2018-03-20T07:24:44.944Z,95285
2018-03-20T07:27:13.987Z,95268
2018-03-20T07:29:43.058Z,95255
2018-03-20T07:32:12.858Z,95266
2018-03-20T07:34:42.713Z,95271
2018-03-20T07:37:11.761Z,95275
2018-03-20T07:39:41.594Z,95273
2018-03-20T07:42:10.623Z,95271
2018-03-20T07:44:39.803Z,95273
2018-03-20T07:47:08.883Z,95278
2018-03-20T07:49:37.931Z,95276
2018-03-20T07:52:07.039Z,95313
2018-03-20T07:54:39.758Z,95278
2018-03-20T07:57:08.786Z,95280
2018-03-20T07:59:37.844Z,95278
2018-03-20T08:02:06.894Z,95283
2018-03-20T08:04:35.986Z,95286
2018-03-20T08:07:05.031Z,95284
2018-03-20T08:09:34.100Z,95291
2018-03-20T08:12:03.123Z,95276
2018-03-20T08:14:32.213Z,95270
2018-03-20T08:17:01.264Z,95286
2018-03-20T08:19:30.362Z,95287
2018-03-20T08:22:00.141Z,95288
2018-03-20T08:24:29.177Z,95278
2018-03-20T08:26:59.020Z,95285
2018-03-20T08:29:28.052Z,95291
2018-03-20T08:31:57.119Z,95331
2018-03-20T08:34:30.738Z,95293
2018-03-20T08:36:59.798Z,95291
2018-03-20T08:39:28.838Z,95290
2018-03-20T08:41:58.067Z,95282
2018-03-20T08:44:27.126Z,95282
2018-03-20T08:46:56.960Z,95283
2018-03-20T08:49:27.203Z,95288
2018-03-20T08:51:56.231Z,95293
2018-03-20T08:54:25.265Z,95296
2018-03-20T08:56:55.377Z,95300
2018-03-20T08:59:25.182Z,95297
2018-03-20T09:01:54.242Z,95291
2018-03-20T09:04:23.283Z,95297
2018-03-20T09:06:53.203Z,95300
2018-03-20T09:09:23.006Z,95293
2018-03-20T09:11:52.044Z,95295
2018-03-20T09:14:21.241Z,95294
2018-03-20T09:16:50.279Z,95298
2018-03-20T09:19:19.323Z,95300
2018-03-20T09:21:48.403Z,95297
2018-03-20T09:24:17.579Z,95307
2018-03-20T09:26:46.608Z,95306
2018-03-20T09:29:15.682Z,95305
2018-03-20T09:31:44.720Z,95302
2018-03-20T09:34:13.811Z,95301
2018-03-20T09:36:42.949Z,95302
2018-03-20T09:39:11.998Z,95303
2018-03-20T09:41:41.034Z,95302
2018-03-20T09:44:10.103Z,95297
2018-03-20T09:46:39.443Z,95303
2018-03-20T09:49:08.505Z,95303
2018-03-20T09:51:37.523Z,95305
2018-03-20T09:54:07.372Z,95307
2018-03-20T09:56:36.398Z,95316
2018-03-20T09:59:05.458Z,95312
2018-03-20T10:01:34.491Z,95316
2018-03-20T10:04:04.511Z,95316
2018-03-20T10:06:33.550Z,95327
2018-03-20T10:09:03.041Z,95319
2018-03-20T10:11:36.695Z,95320
2018-03-20T10:14:07.072Z,95325
2018-03-20T10:16:36.057Z,95315
2018-03-20T10:19:05.081Z,95327
2018-03-20T10:21:34.163Z,95329
2018-03-20T10:24:03.256Z,95335
2018-03-20T10:26:32.266Z,95335
2018-03-20T10:29:01.429Z,95331
2018-03-20T10:31:31.223Z,95329
2018-03-20T10:34:00.246Z,95327
2018-03-20T10:36:29.325Z,95325
2018-03-20T10:38:59.213Z,95323
2018-03-20T10:41:28.288Z,95323
2018-03-20T10:43:57.323Z,95332
2018-03-20T10:46:27.220Z,95325
2018-03-20T10:48:56.311Z,95318
2018-03-20T10:51:25.476Z,95332
2018-03-20T10:53:54.595Z,95329
2018-03-20T10:56:23.654Z,95331
2018-03-20T10:58:52.863Z,95331
2018-03-20T11:01:27.345Z,95341
2018-03-20T11:03:56.433Z,95345
2018-03-20T11:06:25.467Z,95347
2018-03-20T11:08:54.518Z,95337
2018-03-20T11:11:23.579Z,95335
2018-03-20T11:13:52.611Z,95333
2018-03-20T11:16:21.658Z,95338
2018-03-20T11:18:50.695Z,95344
2018-03-20T11:21:19.753Z,95401
2018-03-20T11:23:48.786Z,95348
2018-03-20T11:26:18.636Z,95346
2018-03-20T11:28:47.691Z,95370
2018-03-20T11:31:16.749Z,95358
2018-03-20T11:33:45.822Z,95359
2018-03-20T11:36:14.902Z,95362
2018-03-20T11:38:43.951Z,95374
2018-03-20T11:41:13.011Z,95364
2018-03-20T11:43:42.044Z,95374
2018-03-20T11:46:11.154Z,95377
2018-03-20T11:48:40.945Z,95364
2018-03-20T11:51:10.000Z,95371
2018-03-20T11:53:39.067Z,95377
2018-03-20T11:56:08.793Z,95372
2018-03-20T11:58:37.999Z,95366
2018-03-20T12:01:07.261Z,95354
2018-03-20T12:03:37.055Z,95361
2018-03-20T12:06:06.169Z,95369
2018-03-20T12:08:50.065Z,95380
2018-03-20T12:11:19.166Z,95377
2018-03-20T12:13:48.268Z,95379
2018-03-20T12:16:17.320Z,95375
2018-03-20T12:18:46.405Z,95382
2018-03-20T12:21:15.486Z,95381
2018-03-20T12:23:44.563Z,95366
2018-03-20T12:26:13.695Z,95377
2018-03-20T12:28:42.772Z,95372
2018-03-20T12:31:12.567Z,95370
2018-03-20T12:33:42.426Z,95369
2018-03-20T12:36:11.459Z,95368
2018-03-20T12:38:40.525Z,95375
2018-03-20T12:41:09.563Z,95373
2018-03-20T12:43:39.405Z,95382
2018-03-20T12:46:08.504Z,95387
2018-03-20T12:48:37.701Z,95397
2018-03-20T12:51:06.788Z,95406
2018-03-20T12:53:37.794Z,95414
2018-03-20T12:56:07.681Z,95416
2018-03-20T12:58:36.783Z,95412
2018-03-20T13:01:05.858Z,95409
2018-03-20T13:03:34.920Z,95429
2018-03-20T13:06:04.096Z,95427
2018-03-20T13:08:33.135Z,95433
2018-03-20T13:11:02.219Z,95433
2018-03-20T13:13:31.266Z,95443
2018-03-20T13:16:00.297Z,95444
2018-03-20T13:18:29.379Z,95441
2018-03-20T13:20:58.410Z,95448
2018-03-20T13:23:27.649Z,95464
2018-03-20T13:25:56.648Z,95469
2018-03-20T13:28:25.761Z,95463
2018-03-20T13:30:56.017Z,95476
2018-03-20T13:33:25.198Z,95468
2018-03-20T13:35:54.224Z,95480
2018-03-20T13:38:23.287Z,95468
2018-03-20T13:40:52.331Z,95481
2018-03-20T13:43:21.383Z,95487
2018-03-20T13:45:50.395Z,95513
2018-03-20T13:48:19.427Z,95495
2018-03-20T13:50:52.604Z,95502
2018-03-20T13:53:23.435Z,95507
2018-03-20T13:55:52.526Z,95515
2018-03-20T13:58:21.599Z,95520
2018-03-20T14:00:50.643Z,95528
2018-03-20T14:03:19.678Z,95531
2018-03-20T14:05:48.832Z,95537
2018-03-20T14:08:17.896Z,95545
2018-03-20T14:10:46.923Z,95552
2018-03-20T14:13:16.739Z,95548
2018-03-20T14:15:46.520Z,95562
2018-03-20T14:18:15.541Z,95575
2018-03-20T14:20:44.694Z,95560
2018-03-20T14:23:14.545Z,95570
2018-03-20T14:25:44.932Z,95571
2018-03-20T14:28:14.053Z,95571
2018-03-20T14:34:21.174Z,95576
2018-03-20T14:36:50.934Z,95581
2018-03-20T14:39:20.595Z,95583
2018-03-20T14:41:49.848Z,95589
2018-03-20T14:44:19.184Z,95595
2018-03-20T14:46:48.659Z,95594
2018-03-20T14:49:18.068Z,95592
2018-03-20T14:51:47.272Z,95601
2018-03-20T14:54:16.472Z,95601
2018-03-20T14:56:46.262Z,95607
2018-03-20T14:59:16.941Z,95601
2018-03-20T15:01:49.251Z,95607
2018-03-20T15:04:18.506Z,95621
2018-03-20T15:06:48.051Z,95616
2018-03-20T15:09:21.315Z,95619
2018-03-20T15:11:52.102Z,95619
2018-03-20T15:14:21.259Z,95626
2018-03-20T15:16:50.390Z,95627
2018-03-20T15:19:20.420Z,95619
2018-03-20T15:21:51.064Z,95630
2018-03-20T15:24:20.943Z,95637
2018-03-20T15:26:50.235Z,95646
2018-03-20T15:29:19.536Z,95649
2018-03-20T15:31:49.364Z,95647
2018-03-20T15:34:18.682Z,95669
2018-03-20T15:36:50.787Z,95658
2018-03-20T15:39:20.220Z,95524
2018-03-20T15:41:49.442Z,95667
2018-03-20T15:44:18.745Z,95666
2018-03-20T15:46:48.204Z,95661
2018-03-20T15:49:17.363Z,95680
2018-03-20T15:51:46.384Z,95674
2018-03-20T15:54:15.547Z,95678
2018-03-20T15:56:44.633Z,95680
2018-03-20T15:59:13.980Z,95688
2018-03-20T16:01:43.050Z,95682
2018-03-20T16:04:12.070Z,95687
2018-03-20T16:06:41.219Z,95684
2018-03-20T16:09:10.407Z,95683
2018-03-20T16:11:39.791Z,95689
2018-03-20T16:14:08.964Z,95698
2018-03-20T16:16:39.132Z,95690
2018-03-20T16:19:08.609Z,95709
2018-03-20T16:21:37.723Z,95721
2018-03-20T16:24:06.985Z,95721
2018-03-20T16:26:36.185Z,95723
2018-03-20T16:29:05.399Z,95726
2018-03-20T16:31:38.053Z,95730
2018-03-20T16:34:07.250Z,95742
2018-03-20T16:36:36.557Z,95751
2018-03-20T16:39:05.888Z,95751
2018-03-20T16:41:34.988Z,95762
2018-03-20T16:44:04.196Z,95768
2018-03-20T16:46:33.350Z,95769
2018-03-20T16:49:02.729Z,95767
2018-03-20T16:51:32.245Z,95772
2018-03-20T16:54:01.436Z,95783
2018-03-20T16:56:30.671Z,95778
2018-03-20T16:59:00.643Z,95777
2018-03-20T17:01:33.271Z,95786
2018-03-20T17:04:06.079Z,95783
2018-03-20T17:06:40.012Z,95794
2018-03-20T17:09:09.528Z,95106
2018-03-20T17:11:39.020Z,95793
2018-03-20T17:14:09.072Z,95792
2018-03-20T17:16:39.576Z,95797
2018-03-20T17:19:08.774Z,95795
2018-03-20T17:21:38.972Z,95803
2018-03-20T17:24:09.446Z,95811
2018-03-20T17:26:41.260Z,95813
2018-03-20T17:29:14.067Z,95820
2018-03-20T17:31:44.441Z,95825
2018-03-20T17:34:14.471Z,95830
2018-03-20T17:36:44.000Z,95739
2018-03-20T17:39:14.350Z,95838
2018-03-20T17:41:48.070Z,95843
2018-03-20T17:44:21.695Z,95709
2018-03-20T17:47:00.201Z,95849
2018-03-20T17:49:30.313Z,95855
2018-03-20T17:52:03.581Z,95854
2018-03-20T17:54:32.799Z,95865
2018-03-20T17:57:02.336Z,95865
2018-03-20T17:59:32.208Z,95876
2018-03-20T18:02:01.452Z,95871
2018-03-20T18:04:31.707Z,95871
2018-03-20T18:07:01.035Z,95880
2018-03-20T18:09:30.284Z,95882
2018-03-20T18:11:59.607Z,95892
2018-03-20T18:14:29.625Z,95891
2018-03-20T18:16:59.478Z,95898
2018-03-20T18:19:28.753Z,95902
2018-03-20T18:21:58.733Z,95903
2018-03-20T18:24:28.102Z,95899
2018-03-20T18:26:57.763Z,95912
2018-03-20T18:29:26.884Z,95905
2018-03-20T18:31:56.336Z,95916
2018-03-20T18:34:28.423Z,95924
2018-03-20T18:37:01.030Z,95935
2018-03-20T18:39:30.475Z,95923
2018-03-20T18:41:59.851Z,95930
2018-03-20T18:44:28.949Z,95927
2018-03-20T18:46:57.983Z,95935
2018-03-20T18:49:27.179Z,95929
2018-03-20T18:51:56.354Z,95938
2018-03-20T18:54:26.140Z,95944
2018-03-20T18:56:55.232Z,95949
2018-03-20T18:59:24.317Z,95946
2018-03-20T19:01:53.487Z,95949
2018-03-20T19:04:23.733Z,95957
2018-03-20T19:06:52.796Z,95956
2018-03-20T19:09:21.907Z,95963
2018-03-20T19:11:51.019Z,95975
2018-03-20T19:14:20.509Z,95966
2018-03-20T19:16:50.738Z,95978
2018-03-20T19:19:19.857Z,95971
2018-03-20T19:21:48.947Z,95983
2018-03-20T19:24:18.099Z,95990
2018-03-20T19:26:47.553Z,95987
2018-03-20T19:29:16.690Z,95994
2018-03-20T19:31:45.770Z,95989
2018-03-20T19:34:14.959Z,95993
2018-03-20T19:36:44.148Z,96001
2018-03-20T19:39:13.266Z,96003
2018-03-20T19:41:42.396Z,96017
2018-03-20T19:44:11.495Z,96021
2018-03-20T19:46:40.515Z,96016
2018-03-20T19:49:09.536Z,96022
2018-03-20T19:51:38.588Z,96023
2018-03-20T19:54:07.834Z,96029
2018-03-20T19:56:36.862Z,96032
2018-03-20T19:59:05.908Z,96035
2018-03-20T20:01:34.932Z,96032
2018-03-20T20:04:04.010Z,96042
2018-03-20T20:06:33.409Z,96044
2018-03-20T20:09:03.165Z,96049
2018-03-20T20:11:32.187Z,96050
2018-03-20T20:14:02.140Z,96050
2018-03-20T20:16:31.195Z,96047
2018-03-20T20:19:01.358Z,96054
2018-03-20T20:21:30.442Z,96052
2018-03-20T20:23:59.487Z,96065
2018-03-20T20:26:28.519Z,96059
2018-03-20T20:28:57.602Z,96071
2018-03-20T20:31:28.015Z,96074
2018-03-20T20:33:57.129Z,96072
2018-03-20T20:36:27.070Z,96076
2018-03-20T20:38:56.552Z,96076
2018-03-20T20:41:25.685Z,96085
2018-03-20T20:43:54.719Z,96078
2018-03-20T20:46:24.523Z,96080
2018-03-20T20:48:54.434Z,96086
2018-03-20T20:51:26.811Z,96090
2018-03-20T20:53:55.872Z,96082
2018-03-20T20:56:24.935Z,96081
2018-03-20T20:58:54.023Z,96079
2018-03-20T21:01:23.078Z,96088
2018-03-20T21:03:52.956Z,96085
2018-03-20T21:06:23.030Z,96099
2018-03-20T21:08:52.272Z,96091
2018-03-20T21:11:22.224Z,96101
2018-03-20T21:13:51.370Z,96091
2018-03-20T21:16:20.552Z,96103
2018-03-20T21:18:49.804Z,96100
2018-03-20T21:21:25.409Z,96099
2018-03-20T21:23:55.583Z,96109
2018-03-20T21:26:25.632Z,96096
2018-03-20T21:28:55.300Z,96106
2018-03-20T21:31:24.703Z,96108
2018-03-20T21:33:53.788Z,96112
2018-03-20T21:36:24.412Z,96110
2018-03-20T21:38:53.589Z,96109
2018-03-20T21:41:26.481Z,96106
2018-03-20T21:43:55.544Z,96108
2018-03-20T21:46:30.066Z,96114
2018-03-20T21:49:00.067Z,96113
2018-03-20T21:51:29.449Z,96107
2018-03-20T21:53:59.602Z,96111
2018-03-20T21:56:28.701Z,96113
2018-03-20T21:58:57.845Z,96109
2018-03-20T22:01:26.920Z,96116
2018-03-20T22:03:56.178Z,96115
2018-03-20T22:06:25.502Z,96115
2018-03-20T22:08:54.693Z,96123
2018-03-20T22:11:23.967Z,96115
2018-03-20T22:13:53.362Z,96106
2018-03-20T22:16:22.519Z,96126
2018-03-20T22:18:51.530Z,96119
2018-03-20T22:21:20.581Z,96119
2018-03-20T22:23:49.647Z,96126
2018-03-20T22:26:18.678Z,96118
2018-03-20T22:28:47.678Z,96120
2018-03-20T22:31:17.787Z,96122
2018-03-20T22:33:46.807Z,96122
2018-03-20T22:36:19.153Z,96120
2018-03-20T22:38:48.176Z,96124
2018-03-20T22:41:17.993Z,96133
2018-03-20T22:43:47.019Z,96137
2018-03-20T22:46:16.082Z,96138
2018-03-20T22:48:45.098Z,96128
2018-03-20T22:51:15.223Z,96141
2018-03-20T22:53:44.243Z,96145
2018-03-20T22:56:13.274Z,96147
2018-03-20T22:58:42.331Z,96148
2018-03-20T23:01:11.356Z,96144
2018-03-20T23:03:41.489Z,96148
2018-03-20T23:06:10.497Z,96142
2018-03-20T23:08:39.550Z,96150
2018-03-20T23:11:09.330Z,96151
2018-03-20T23:13:38.398Z,96154
2018-03-20T23:16:07.422Z,96154
2018-03-20T23:18:36.479Z,96156
2018-03-20T23:21:05.488Z,96158
2018-03-20T23:23:34.550Z,96167
2018-03-20T23:26:03.567Z,96151
2018-03-20T23:28:32.627Z,96159
2018-03-20T23:31:01.652Z,96164
2018-03-20T23:33:31.903Z,96166
2018-03-20T23:36:00.967Z,96175
2018-03-20T23:38:30.018Z,96177
2018-03-20T23:40:59.085Z,96169
2018-03-20T23:43:28.882Z,96178
2018-03-20T23:45:57.915Z,96172
2018-03-20T23:48:27.012Z,96181
2018-03-20T23:50:56.022Z,96183
2018-03-20T23:53:25.045Z,96173
2018-03-20T23:55:54.113Z,96193
2018-03-20T23:58:23.138Z,96187
